| time (UTC) | temp F | wind direction | speed MPH | gust MPH | rain 1hr in | rain 24hr in | rain mn in | humidity % | barometer mb |
| 20260906061420 | 77 | 44 | 4.0 | 14.0 | 0.00 | 0.00 | 0.00 | 83 | 1012.5 |
| 20260906060348 | 77 | 50 | 6.0 | 14.0 | 0.00 | 0.00 | 0.00 | 83 | 1012.2 |
| 20260906055347 | 77 | 47 | 8.0 | 14.0 | 0.00 | 0.00 | 0.00 | 84 | 1012.5 |
| 20260906054346 | 77 | 32 | 6.0 | 14.0 | 0.00 | 0.00 | 0.00 | 84 | 1012.5 |
| 20260906053345 | 75 | 48 | 7.0 | 14.0 | 0.00 | 0.00 | 0.00 | 88 | 1012.5 |
| 20260906052242 | 74 | 78 | 2.0 | 4.0 | 0.00 | 0.00 | 0.00 | 92 | 1011.9 |
| 20260906051241 | 74 | 168 | 0.0 | 0.0 | 0.00 | 0.00 | 0.00 | 92 | 1011.5 |
| 20260906050240 | 74 | 138 | 0.0 | 0.0 | 0.00 | 0.00 | 0.00 | 91 | 1011.5 |
| 20260906045208 | 75 | 139 | 0.0 | 0.0 | 0.00 | 0.00 | 0.00 | 91 | 1011.5 |
| 20260906044207 | 75 | 139 | 0.0 | 0.0 | 0.00 | 0.00 | 0.00 | 90 | 1011.9 |
| 20260906043206 | 75 | 139 | 0.0 | 0.0 | 0.00 | 0.00 | 0.00 | 90 | 1011.9 |
| 20260906042205 | 75 | 138 | 0.0 | 0.0 | 0.00 | 0.00 | 0.00 | 91 | 1012.2 |
| 20260906041102 | 75 | 139 | 0.0 | 0.0 | 0.00 | 0.00 | 0.00 | 90 | 1012.2 |
| 20260906040101 | 75 | 139 | 0.0 | 0.0 | 0.00 | 0.00 | 0.00 | 90 | 1012.2 |
| 20260906035100 | 75 | 139 | 0.0 | 0.0 | 0.00 | 0.00 | 0.00 | 90 | 1012.2 |
| 20260906034059 | 75 | 139 | 0.0 | 0.0 | 0.00 | 0.00 | 0.00 | 90 | 1012.2 |
| 20260906033027 | 75 | 138 | 0.0 | 0.0 | 0.00 | 0.00 | 0.00 | 89 | 1012.2 |
| 20260906032026 | 75 | 138 | 0.0 | 0.0 | 0.00 | 0.00 | 0.00 | 89 | 1012.2 |
| 20260906031025 | 75 | 139 | 0.0 | 0.0 | 0.00 | 0.00 | 0.00 | 89 | 1011.9 |
| 20260906030024 | 75 | 139 | 0.0 | 0.0 | 0.00 | 0.00 | 0.00 | 88 | 1011.9 |
| 20260906025024 | 75 | 139 | 0.0 | 0.0 | 0.00 | 0.00 | 0.00 | 88 | 1011.9 |
| 20260906024023 | 75 | 139 | 0.0 | 1.0 | 0.00 | 0.00 | 0.00 | 87 | 1011.9 |
| 20260906023022 | 76 | 139 | 0.0 | 1.0 | 0.00 | 0.00 | 0.00 | 87 | 1011.5 |
| 20260906021950 | 76 | 139 | 0.0 | 1.0 | 0.00 | 0.00 | 0.00 | 86 | 1011.5 |
| 20260906020949 | 76 | 139 | 0.0 | 1.0 | 0.00 | 0.00 | 0.00 | 86 | 1011.5 |
| 20260906015948 | 77 | 69 | 0.0 | 3.0 | 0.00 | 0.00 | 0.00 | 84 | 1011.2 |
| 20260906014916 | 77 | 69 | 0.0 | 4.0 | 0.00 | 0.00 | 0.00 | 83 | 1011.2 |
| 20260906013915 | 78 | 49 | 2.0 | 4.0 | 0.00 | 0.00 | 0.00 | 83 | 1011.2 |
| 20260906012914 | 78 | 39 | 2.0 | 3.0 | 0.00 | 0.00 | 0.00 | 82 | 1010.8 |
| 20260906011913 | 78 | 213 | 1.0 | 2.0 | 0.00 | 0.00 | 0.00 | 81 | 1010.8 |
| 20260906010908 | 78 | 214 | 0.0 | 0.0 | 0.00 | 0.00 | 0.00 | 80 | 1010.8 |
| 20260906005906 | 79 | 214 | 0.0 | 0.0 | 0.00 | 0.00 | 0.00 | 78 | 1010.8 |
| 20260906004906 | 80 | 214 | 0.0 | 3.0 | 0.00 | 0.00 | 0.00 | 78 | 1010.5 |
| 20260906003905 | 81 | 209 | 1.0 | 3.0 | 0.00 | 0.00 | 0.00 | 75 | 1010.8 |
| 20260906002904 | 82 | 347 | 0.0 | 1.0 | 0.00 | 0.00 | 0.00 | 70 | 1010.5 |
| 20260906001903 | 82 | 126 | 0.0 | 1.0 | 0.00 | 0.00 | 0.00 | 69 | 1010.5 |
| 20260906000902 | 83 | 134 | 0.0 | 2.0 | 0.00 | 0.00 | 0.00 | 68 | 1010.5 |
| 20260905235901 | 84 | 130 | 1.0 | 3.0 | 0.00 | 0.00 | 0.00 | 66 | 1010.5 |
| 20260905234900 | 84 | 178 | 0.0 | 8.0 | 0.00 | 0.00 | 0.00 | 64 | 1010.8 |
| 20260905233859 | 85 | 102 | 3.0 | 10.0 | 0.00 | 0.00 | 0.00 | 63 | 1010.8 |
| 20260905232827 | 87 | 108 | 3.0 | 13.0 | 0.00 | 0.00 | 0.00 | 61 | 1011.2 |
| 20260905231826 | 88 | 153 | 2.0 | 13.0 | 0.00 | 0.00 | 0.00 | 55 | 1011.5 |
| 20260905230825 | 86 | 65 | 4.0 | 16.0 | 0.00 | 0.00 | 0.00 | 66 | 1011.2 |
| 20260905225824 | 88 | 29 | 8.0 | 16.0 | 0.00 | 0.00 | 0.00 | 58 | 1010.8 |
| 20260905224823 | 93 | 19 | 10.0 | 16.0 | 0.00 | 0.00 | 0.00 | 55 | 1010.5 |
| 20260905223822 | 95 | 17 | 1.0 | 3.0 | 0.00 | 0.00 | 0.00 | 52 | 1010.2 |
| 20260905222751 | 95 | 339 | 1.0 | 2.0 | 0.00 | 0.00 | 0.00 | 52 | 1010.2 |
| 20260905221750 | 93 | 8 | 0.0 | 2.0 | 0.00 | 0.00 | 0.00 | 55 | 1010.2 |
| 20260905220718 | 94 | 13 | 1.0 | 3.0 | 0.00 | 0.00 | 0.00 | 53 | 1010.2 |
| 20260905215717 | 95 | 47 | 1.0 | 6.0 | 0.00 | 0.00 | 0.00 | 48 | 1010.2 |
| 20260905214716 | 96 | 25 | 3.0 | 7.0 | 0.00 | 0.00 | 0.00 | 47 | 1010.2 |
| 20260905213715 | 97 | 27 | 3.0 | 7.0 | 0.00 | 0.00 | 0.00 | 46 | 1010.2 |
| 20260905212715 | 97 | 56 | 1.0 | 6.0 | 0.00 | 0.00 | 0.00 | 48 | 1010.2 |
| 20260905211714 | 98 | 42 | 4.0 | 6.0 | 0.00 | 0.00 | 0.00 | 47 | 1010.2 |
| 20260905210642 | 98 | 26 | 2.0 | 4.0 | 0.00 | 0.00 | 0.00 | 45 | 1010.2 |
| 20260905205641 | 97 | 23 | 2.0 | 9.0 | 0.00 | 0.00 | 0.00 | 45 | 1010.2 |
| 20260905204640 | 97 | 36 | 3.0 | 9.0 | 0.00 | 0.00 | 0.00 | 45 | 1010.5 |
| 20260905203639 | 97 | 37 | 5.0 | 8.0 | 0.00 | 0.00 | 0.00 | 46 | 1010.5 |
| 20260905202638 | 97 | 47 | 2.0 | 8.0 | 0.00 | 0.00 | 0.00 | 49 | 1010.5 |
| 20260905201637 | 98 | 26 | 4.0 | 6.0 | 0.00 | 0.00 | 0.00 | 48 | 1010.8 |
| 20260905200636 | 98 | 349 | 3.0 | 10.0 | 0.00 | 0.01 | 0.00 | 48 | 1010.8 |
| 20260905195635 | 97 | 40 | 5.0 | 10.0 | 0.00 | 0.01 | 0.00 | 47 | 1011.2 |
| 20260905194634 | 97 | 22 | 2.0 | 7.0 | 0.00 | 0.01 | 0.00 | 48 | 1011.2 |
| 20260905193602 | 97 | 47 | 2.0 | 8.0 | 0.00 | 0.01 | 0.00 | 49 | 1011.5 |
| 20260905192601 | 96 | 57 | 3.0 | 9.0 | 0.00 | 0.01 | 0.00 | 49 | 1011.5 |
| 20260905191600 | 97 | 50 | 6.0 | 9.0 | 0.00 | 0.01 | 0.00 | 48 | 1011.5 |
| 20260905190559 | 96 | 5 | 2.0 | 8.0 | 0.00 | 0.01 | 0.00 | 51 | 1011.9 |
| 20260905185559 | 96 | 42 | 4.0 | 10.0 | 0.00 | 0.01 | 0.00 | 48 | 1012.2 |
| 20260905184558 | 96 | 20 | 4.0 | 10.0 | 0.00 | 0.01 | 0.00 | 49 | 1012.2 |
| 20260905183525 | 95 | 40 | 4.0 | 9.0 | 0.00 | 0.01 | 0.00 | 48 | 1012.2 |
| 20260905182525 | 95 | 62 | 4.0 | 7.0 | 0.00 | 0.01 | 0.00 | 51 | 1012.2 |
| 20260905181524 | 95 | 54 | 4.0 | 7.0 | 0.00 | 0.01 | 0.00 | 50 | 1012.5 |
| 20260905180523 | 95 | 353 | 3.0 | 7.0 | 0.00 | 0.01 | 0.00 | 53 | 1012.5 |
| 20260905175522 | 95 | 98 | 2.0 | 7.0 | 0.00 | 0.01 | 0.00 | 57 | 1012.5 |
| 20260905174450 | 95 | 27 | 4.0 | 7.0 | 0.00 | 0.01 | 0.00 | 56 | 1012.5 |
| 20260905173449 | 95 | 251 | 2.0 | 6.0 | 0.00 | 0.01 | 0.00 | 57 | 1012.9 |
| 20260905172449 | 94 | 6 | 2.0 | 10.0 | 0.00 | 0.01 | 0.00 | 56 | 1012.9 |
| 20260905171447 | 94 | 6 | 6.0 | 10.0 | 0.00 | 0.01 | 0.00 | 59 | 1012.9 |
| 20260905170415 | 94 | 261 | 1.0 | 5.0 | 0.00 | 0.01 | 0.00 | 59 | 1012.9 |
| 20260905165414 | 93 | 20 | 2.0 | 6.0 | 0.00 | 0.01 | 0.00 | 61 | 1013.2 |
| 20260905164413 | 92 | 352 | 1.0 | 6.0 | 0.00 | 0.01 | 0.00 | 61 | 1013.2 |
| 20260905163412 | 92 | 288 | 2.0 | 6.0 | 0.00 | 0.01 | 0.00 | 62 | 1013.5 |
| 20260905162412 | 91 | 258 | 2.0 | 5.0 | 0.00 | 0.01 | 0.00 | 67 | 1013.9 |
| 20260905161340 | 91 | 291 | 1.0 | 5.0 | 0.00 | 0.01 | 0.00 | 66 | 1013.9 |
| 20260905160339 | 90 | 290 | 1.0 | 5.0 | 0.00 | 0.01 | 0.00 | 64 | 1013.9 |
| 20260905155338 | 90 | 334 | 1.0 | 4.0 | 0.00 | 0.01 | 0.00 | 65 | 1013.9 |
| 20260905154337 | 89 | 59 | 1.0 | 4.0 | 0.00 | 0.01 | 0.00 | 68 | 1013.9 |
| 20260905153305 | 89 | 270 | 2.0 | 4.0 | 0.00 | 0.01 | 0.00 | 70 | 1013.9 |
| 20260905152306 | 88 | 268 | 2.0 | 5.0 | 0.00 | 0.01 | 0.00 | 71 | 1014.2 |
| 20260905151303 | 88 | 225 | 2.0 | 5.0 | 0.00 | 0.01 | 0.00 | 72 | 1013.9 |
| 20260905150302 | 87 | 182 | 2.0 | 4.0 | 0.00 | 0.01 | 0.00 | 73 | 1013.9 |
| 20260905145301 | 86 | 189 | 2.0 | 4.0 | 0.00 | 0.01 | 0.00 | 74 | 1014.2 |
| 20260905144300 | 85 | 186 | 1.0 | 3.0 | 0.00 | 0.01 | 0.00 | 75 | 1014.2 |
| 20260905143300 | 85 | 184 | 0.0 | 3.0 | 0.00 | 0.01 | 0.00 | 77 | 1014.2 |
| 20260905142156 | 84 | 273 | 1.0 | 3.0 | 0.00 | 0.01 | 0.00 | 79 | 1014.6 |
| 20260905141155 | 83 | 191 | 1.0 | 4.0 | 0.00 | 0.01 | 0.00 | 79 | 1014.6 |
| 20260905140154 | 82 | 193 | 2.0 | 4.0 | 0.00 | 0.01 | 0.00 | 82 | 1014.6 |
| 20260905135122 | 82 | 192 | 2.0 | 3.0 | 0.00 | 0.01 | 0.00 | 83 | 1014.6 |
| 20260905134122 | 81 | 189 | 2.0 | 3.0 | 0.00 | 0.01 | 0.00 | 84 | 1014.6 |
| 20260905133121 | 81 | 200 | 1.0 | 1.0 | 0.00 | 0.01 | 0.00 | 85 | 1014.6 |
| 20260905132120 | 79 | 215 | 1.0 | 1.0 | 0.00 | 0.01 | 0.00 | 86 | 1014.6 |
| 20260905131119 | 77 | 254 | 1.0 | 4.0 | 0.00 | 0.01 | 0.00 | 91 | 1014.9 |
| 20260905130047 | 76 | 198 | 1.0 | 5.0 | 0.00 | 0.01 | 0.00 | 93 | 1014.9 |
| 20260905125046 | 75 | 190 | 3.0 | 5.0 | 0.00 | 0.01 | 0.00 | 94 | 1014.6 |
| 20260905124045 | 75 | 325 | 1.0 | 2.0 | 0.00 | 0.01 | 0.00 | 94 | 1014.6 |
| 20260905123044 | 75 | 8 | 0.0 | 0.0 | 0.00 | 0.01 | 0.00 | 95 | 1014.6 |
| 20260905122043 | 74 | 8 | 0.0 | 0.0 | 0.00 | 0.01 | 0.00 | 95 | 1014.2 |
| 20260905121042 | 73 | 8 | 0.0 | 0.0 | 0.00 | 0.01 | 0.00 | 96 | 1014.2 |
| 20260905120010 | 71 | 8 | 0.0 | 0.0 | 0.00 | 0.01 | 0.00 | 96 | 1014.2 |
| 20260905115009 | 71 | 8 | 0.0 | 0.0 | 0.00 | 0.01 | 0.00 | 96 | 1014.2 |
| 20260905114008 | 71 | 8 | 0.0 | 0.0 | 0.00 | 0.01 | 0.00 | 95 | 1014.2 |
| 20260905113007 | 71 | 8 | 0.0 | 0.0 | 0.00 | 0.01 | 0.00 | 96 | 1013.9 |
| 20260905111935 | 71 | 8 | 0.0 | 0.0 | 0.00 | 0.01 | 0.00 | 95 | 1013.9 |
| 20260905110934 | 71 | 8 | 0.0 | 0.0 | 0.00 | 0.01 | 0.00 | 95 | 1013.5 |
| 20260905105902 | 71 | 8 | 0.0 | 0.0 | 0.00 | 0.01 | 0.00 | 95 | 1013.9 |
| 20260905104901 | 71 | 8 | 0.0 | 0.0 | 0.00 | 0.01 | 0.00 | 95 | 1013.5 |
| 20260905103900 | 71 | 8 | 0.0 | 0.0 | 0.00 | 0.01 | 0.00 | 95 | 1013.5 |
| 20260905102827 | 71 | 8 | 0.0 | 0.0 | 0.00 | 0.01 | 0.00 | 95 | 1013.5 |
| 20260905101826 | 71 | 8 | 0.0 | 0.0 | 0.00 | 0.01 | 0.00 | 95 | 1013.2 |
| 20260905100826 | 71 | 8 | 0.0 | 0.0 | 0.00 | 0.01 | 0.00 | 95 | 1013.2 |
| 20260905095825 | 71 | 8 | 0.0 | 0.0 | 0.00 | 0.01 | 0.00 | 95 | 1013.2 |
| 20260905094753 | 71 | 8 | 0.0 | 0.0 | 0.00 | 0.01 | 0.00 | 95 | 1013.2 |
| 20260905093752 | 71 | 8 | 0.0 | 0.0 | 0.00 | 0.01 | 0.00 | 95 | 1013.2 |
| 20260905092751 | 71 | 8 | 0.0 | 0.0 | 0.00 | 0.01 | 0.00 | 95 | 1013.2 |
| 20260905091718 | 72 | 8 | 0.0 | 0.0 | 0.00 | 0.01 | 0.00 | 95 | 1013.2 |
| 20260905090718 | 72 | 8 | 0.0 | 0.0 | 0.00 | 0.01 | 0.00 | 95 | 1013.2 |
| 20260905085717 | 72 | 8 | 0.0 | 0.0 | 0.00 | 0.01 | 0.00 | 95 | 1013.2 |
| 20260905084716 | 72 | 8 | 0.0 | 0.0 | 0.00 | 0.01 | 0.00 | 95 | 1013.2 |
| 20260905083715 | 72 | 8 | 0.0 | 0.0 | 0.00 | 0.01 | 0.00 | 95 | 1013.2 |
| 20260905082714 | 72 | 8 | 0.0 | 0.0 | 0.00 | 0.01 | 0.00 | 95 | 1013.2 |
| 20260905081713 | 72 | 8 | 0.0 | 0.0 | 0.00 | 0.01 | 0.00 | 95 | 1013.2 |
| 20260905080609 | 72 | 8 | 0.0 | 0.0 | 0.00 | 0.01 | 0.00 | 95 | 1012.9 |
| 20260905075608 | 72 | 8 | 0.0 | 0.0 | 0.00 | 0.01 | 0.00 | 95 | 1012.9 |
| 20260905074608 | 72 | 8 | 0.0 | 0.0 | 0.00 | 0.01 | 0.00 | 95 | 1012.9 |
| 20260905073536 | 72 | 8 | 0.0 | 0.0 | 0.00 | 0.01 | 0.00 | 95 | 1012.9 |
| 20260905072535 | 73 | 8 | 0.0 | 0.0 | 0.00 | 0.01 | 0.00 | 95 | 1012.9 |
| 20260905071534 | 73 | 11 | 0.0 | 0.0 | 0.00 | 0.01 | 0.00 | 95 | 1012.9 |
| 20260905070533 | 73 | 11 | 0.0 | 0.0 | 0.00 | 0.01 | 0.00 | 94 | 1012.9 |
| 20260905065532 | 73 | 11 | 0.0 | 0.0 | 0.00 | 0.01 | 0.00 | 94 | 1012.9 |
| 20260905064501 | 73 | 11 | 0.0 | 0.0 | 0.00 | 0.01 | 0.00 | 94 | 1013.2 |
| 20260905063459 | 73 | 11 | 0.0 | 0.0 | 0.00 | 0.01 | 0.00 | 94 | 1013.2 |
| 20260905062458 | 73 | 11 | 0.0 | 0.0 | 0.00 | 0.01 | 0.00 | 94 | 1013.5 |
| 20260905061457 | 73 | 11 | 0.0 | 0.0 | 0.00 | 0.01 | 0.00 | 94 | 1013.5 |